This site, now in its 15th season, is a labour of love and fun from one of Ottawa's most avid time trialists and number crunchers. It adheres to and is permitted by the laws of Canada, promotes the objectives of every bicycle club whose results are shown, and is donated free of charge by myself for your enjoyment and usage. If you would like results from series you ride in to be shown here, give me (celia@drmath.ca) a shout!


Index Page
ATT OTT WTT AATT CFCTT VVVTT
Help resultformat:
Case-sensitive

OBC Open TT Series - 1994-May-19 - 15km (Rockliffe Pkwy) (EvtFactor = 0.8539)

Weather (18:00): Clear. Temp.: 19.8C, Humidity: 28%, DewPoint: 0.7C, Wind: ENE 17km/h, Pressure: 100.46kPa, Visibility: 40.2km.
Weather (19:00): Clear. Temp.: 18.9C, Humidity: 31%, DewPoint: 1.5C, Wind: ESE 13km/h, Pressure: 100.46kPa, Visibility: 40.2km.
Weather (20:00): Clear. Temp.: 16.5C, Humidity: 43%, DewPoint: 3.8C, Wind: SE 9km/h, Pressure: 100.46kPa, Visibility: 40.2km.

Send photos with description (when/where/what) of yourself on or off of bike to celia@drmath.ca

 
 

BESTS?
 
1 Roy, Patrick OBC 20:21 44.226 1/64 OVAM 1/11 0.9684
2 Hunter, Philip --- 20:43 43.443 2/64 OSEM 1/28 0.9270
3 Cowan, Norman  OBC 20:59 42.891 3/64 OVAM 2/11 1.0782
4 Smith, Ed --- 21:17 42.287 4/64 OSEM 2/28 1.3120
5 McCutcheon, Drew --- 21:21 42.155 5/64 OSEM 3/28 1.2804
6 Harrington, Noel --- 21:24 42.056 6/64 OSEM 4/28  
7 Hamilton, Peter --- 21:48 41.284 7/64 OSEM 5/28  
Morvan, Jacques  OBC 21:48 41.284 7/64 OVBM 1/8 1.2105
9 Reinisch, Stephen --- 21:49 41.253 9/64 OSEM 6/28 1.1464
10 Bachman, Paul OBC 21:51 41.190 10/64 OSEM 7/28 1.0968
11 Moerman, Bram  OBC 21:58 40.971 11/64 OVBM 2/8 1.0485
12 Greenberg, Mike --- 21:59 40.940 12/64 OSEM 8/28  
13 Hinz, Richard OBC 22:01 40.878 13/64 OVAM 3/11 0.8928
Johns, Mike --- 22:01 40.878 13/64 OSEM 9/28 0.9183
MacDonald, Ryan --- 22:01 40.878 13/64 OSEM 9/28 0.9421
16 Archambault, Marc --- 22:07 40.693 16/64 OSEM 11/28 0.9776
17 St-Amour, Pierre OBC 22:14 40.480 17/64 OVAM 4/11 1.1460
18 Campbell, Colin  OBC 22:15 40.449 18/64 OSEM 12/28 1.0135
19 Buffa, Alex  OBC 22:24 40.179 19/64 OSEM 13/28 1.0545
20 Stephenson, Jamie OBC 22:29 40.030 20/64 OSEM 14/28  
21 Paul, Jim --- 22:31 39.970 21/64 OVAM 5/11  
22 Crawford, Neil ABC 22:34 39.882 22/64 OVAM 6/11  
Lau, Michael OBC 22:34 39.882 22/64 OSEM 15/28 1.0588
24 Martignago, Mike OBC 22:36 39.823 24/64 OVAM 7/11 0.9846
25 Hicks, Bob  OBC 22:46 39.531 25/64 OVBM 3/8  
26 Leach, Mike --- 22:49 39.445 26/64 OSEM 16/28 0.9547
27 Arts, Michael --- 22:51 39.387 27/64 OJUM 1/4 0.9804
28 Budd, Daniel OBC 22:53 39.330 28/64 OSEM 17/28 0.9935
29 Stewart, Ian OBC 22:56 39.244 29/64 OVAM 8/11 1.2167
30 Glover, Jim  OBC 23:00 39.130 30/64 OVAM 9/11  
31 Boileau, Greg OBC 23:01 39.102 31/64 OJUM 2/4  
32 Simpson, Bob OBC 23:07 38.933 32/64 OVBM 4/8 0.8215
33 Timleck, Andrew --- 23:11 38.821 33/64 OSEM 18/28  
34 Jensen, Prapti OBC 23:13 38.765 34/64 OSEF 1/5 1.3565
35 Pazdzior, Ellen  OBC 23:26 38.407 35/64 OVAF 1/4 0.8541
36 Ménard, Monique OBC 23:34 38.190 36/64 OSEF 2/5 1.4543
37 Tamborine, Don --- 23:40 38.028 37/64 OVBM 5/8 0.9915
38 Nelmes, John OBC 23:42 37.975 38/64 OSEM 19/28  
39 Pritlove, James --- 24:02 37.448 39/64 OSEM 20/28 0.9349
40 Fransham, Richard OBC 24:11 37.216 40/64 OVBM 6/8 0.9235
41 Barber, Brian --- 24:20 36.986 41/64 OSEM 21/28  
42 Stewart, Rob OBC 24:27 36.810 42/64 OVAM 10/11 0.9185
43 Bachman, Mike OBC 24:31 36.710 43/64 OVCM 1/2 0.9362
44 Binch, Todd --- 24:39 36.511 44/64 OSEM 22/28  
45 Callum, John ABC 25:07 35.833 45/64 OJUM 3/4 0.9338
46 Aller, Mo OBC 25:08 35.809 46/64 OVCM 2/2 0.9783
47 Boone, Fabian --- 25:13 35.691 47/64 OSEM 23/28  
48 Delisle, Stephane --- 25:17 35.597 48/64 OSEM 24/28  
49 Montpetit, Stephane --- 25:20 35.526 49/64 OSEM 25/28 0.9960
50 Weiman, David --- 25:23 35.456 50/64 OSEM 26/28 0.9420
51 Polischuk, Susan --- 25:24 35.433 51/64 OSEF 3/5 0.9308
52 Presunka, Patty --- 25:28 35.340 52/64 OVAF 2/4  
53 Fortey, Brian ABC 25:36 35.156 53/64 OJUM 4/4 0.9961
54 Green, Richard OBC 25:40 35.065 54/64 OVBM 7/8 0.9903
55 Ajersch, Mary  OBC 26:01 34.593 55/64 OVBF 1/2 0.9904
56 McInnis, Celia  OBC 26:21 34.156 56/64 OVAF 3/4 0.9099
57 Jofriet, Eric --- 26:27 34.026 57/64 OSEM 27/28  
58 Chapman, Kerry --- 26:34 33.877 58/64 OSEF 4/5  
59 Ross, Glynn --- 26:54 33.457 59/64 OSEF 5/5  
60 Girouard, Marcie --- 27:27 32.787 60/64 OVAF 4/4 1.2454
61 Gerber, Rosmarie OBC 27:39 32.550 61/64 OVBF 2/2  
62 Soucy, Dominic --- 27:40 32.530 62/64 OSEM 28/28  
63 Austen, Ian  OBC DNS   63/64 OVAM 11/11  
Romkey, Gary OBC DNF   64/64 OVBM 8/8  
 
Average Speed of all of the above 62 finishes (930km in 24:24:03):38.113
>>>Average of the Average Speeds for these 62 finishes38.336<<<
 

The number of data records shown above is 64
The server processing of your query took: 0 wallclock secs ( 0.09 usr + 0.01 sys = 0.10 CPU)

     


Apr 1 (Good Friday) Apr 14 Apr 21 Apr 28
May 3 May 5 May 10 May 12 (22km) May 15 (40km) May 17
  May 19  
May 24 May 24 (10km) May 26 (cancelled) May 29 (40km)
Jun 2 Jun 5 (38km) Jun 7 Jun 9 Jun 14 (40km) Jun 14 Jun 16 Jun 21 Jun 21 Jun 23 Jun 26 (40km/80km) Jun 28 (40km) Jun 28 Jun 29
Jul 5 Jul 6 Jul 7 Jul 10 (22km) Jul 12 Jul 13 Jul 14 Jul 19 Jul 20 Jul 21 Jul 24 (38km) Jul 26 Jul 27 Jul 28
Aug 2 Aug 3 Aug 9 Aug 10 Aug 11 Aug 14 (40km/80km) Aug 16 Aug 17 Aug 18 Aug 20 (22km) Aug 23 Aug 24 Aug 28 (38km) Aug 30 (Invitational) Aug 31
Sep 1 Sep 6 Sep 8 Sep 13 Sep 20 Sep 25 (40km)

OTT Rankings
Best       Best by category
WTT Rankings for OBC Members
5 Best 15km     5 Best 15km by category
OBC Member Best Three 15km Rankings
Overall     by category
OBC BAR Ranking
Overall     by category     Rider "Consistency-Graph"
ABC BAR Ranking
Overall     by category     Rider "Consistency-Graph"
Other years
TT Calculator All TT People All TT events
ABC Home VVV Home
CKAP GOLD MEDAL
Other Links

Please send your comments and suggestions to: Celia McInnis
Copyright © 1998-2011 Celia McInnis. All rights reserved. Links are welcomed.